»·PEaware :: SKY3 KABQ-KSKX

SKY3 :: KABQ-KSKX

FLIGHT INFORMATION

Flight Status: Arrived
Operator:
Skymark Airlines
More flights by this operator :: More flights under this callsign
Pilot: Max W. (2591)
Aircraft: SOCATA TBM-900
(TBM9)
More flights by this aircraft type
Origin: KABQ Albuquerque Intl Sunport
United States
Destination: KSKX Taos Regl
United States
More flights between these airports :: More routes between these airports
Route: ABQ V263 SAF V83 DIXAN
File this flight plan on PilotEdge
Remarks:
Altitude:
(Current/Filed)
13,000ft
Speed:
(Current/Filed)
450kts
Departed: 04-Aug-18 12:21 PM
Arrived: 04-Aug-18 12:58 PM
Distance/Time
Traveled:
97nm/0:37
Distance/Time
To Go:
Arrived

Flight Plot

Page will automatically refresh every two minutes.

Flight plan parsing failed; only flown route is shown


Map Options




Map Legend


Flown Route
Filed Route
Departure Airport
Arrival Airport
Navaid (VOR, NDB)
Fix

Horizontal Profiles

Position Reports

Time Latitude Longitude Heading Altitude Ground
Speed
04-Aug-18 11:54 35.037183 -106.620197 105 5312ft 0kts
04-Aug-18 11:55 35.037183 -106.620197 105 5312ft 0kts
04-Aug-18 11:56 35.037183 -106.620197 105 5312ft 0kts
04-Aug-18 11:57 35.037183 -106.620197 105 5312ft 0kts
04-Aug-18 11:58 35.037183 -106.620197 105 5312ft 0kts
04-Aug-18 11:59 35.037178 -106.620173 105 5312ft 0kts
04-Aug-18 12:00 35.037178 -106.620173 105 5312ft 0kts
04-Aug-18 12:01 35.037178 -106.620173 105 5312ft 0kts
04-Aug-18 12:02 35.037178 -106.620173 105 5312ft 0kts
04-Aug-18 12:03 35.037178 -106.620173 105 5312ft 0kts
04-Aug-18 12:04 35.037178 -106.620173 105 5312ft 0kts
04-Aug-18 12:05 35.037178 -106.620173 105 5312ft 0kts
04-Aug-18 12:06 35.037178 -106.620173 105 5312ft 0kts
04-Aug-18 12:07 35.037178 -106.620173 105 5312ft 0kts
04-Aug-18 12:08 35.037178 -106.620173 105 5312ft 0kts
04-Aug-18 12:09 35.037280 -106.619964 31 5312ft 6kts
04-Aug-18 12:10 35.039117 -106.620467 359 5312ft 7kts
04-Aug-18 12:11 35.039180 -106.620466 2 5312ft 0kts
04-Aug-18 12:12 35.039180 -106.620466 2 5312ft 0kts
04-Aug-18 12:13 35.039600 -106.620320 29 5312ft 2kts
04-Aug-18 12:14 35.039282 -106.616055 126 5312ft 17kts
04-Aug-18 12:15 35.037443 -106.614415 215 5312ft 13kts
04-Aug-18 12:16 35.034238 -106.618334 216 5312ft 18kts
04-Aug-18 12:17 35.030804 -106.622364 226 5312ft 12kts
04-Aug-18 12:18 35.027183 -106.626799 225 5312ft 16kts
04-Aug-18 12:19 35.023756 -106.630935 225 5312ft 7kts
04-Aug-18 12:20 35.023137 -106.631384 166 5312ft 0kts
04-Aug-18 12:21 35.022690 -106.630967 136 5312ft 11kts
04-Aug-18 12:22 35.035325 -106.614837 41 5775ft 128kts
04-Aug-18 12:23 35.065924 -106.627532 307 7545ft 158kts
04-Aug-18 12:24 35.092707 -106.670069 308 9654ft 163kts
04-Aug-18 12:25 35.120519 -106.713373 308 11677ft 165kts
04-Aug-18 12:26 35.150539 -106.757446 332 13057ft 193kts
04-Aug-18 12:27 35.211573 -106.745482 17 13053ft 251kts
04-Aug-18 12:28 35.275660 -106.718428 17 13038ft 260kts
04-Aug-18 12:29 35.343774 -106.689574 17 13043ft 259kts
04-Aug-18 12:30 35.411506 -106.660821 17 13039ft 259kts
04-Aug-18 12:31 35.479948 -106.632499 17 13009ft 259kts
04-Aug-18 12:32 35.524263 -106.573303 82 13021ft 266kts
04-Aug-18 12:33 35.526403 -106.482261 82 13027ft 267kts
04-Aug-18 12:34 35.530835 -106.389691 85 13028ft 275kts
04-Aug-18 12:35 35.533681 -106.297298 86 13032ft 276kts
04-Aug-18 12:36 35.536517 -106.203109 86 13031ft 277kts
04-Aug-18 12:37 35.539296 -106.108355 86 13028ft 277kts
04-Aug-18 12:38 35.592293 -106.058752 8 13032ft 267kts
04-Aug-18 12:39 35.665838 -106.046613 6 13027ft 267kts
04-Aug-18 12:40 35.737999 -106.035936 5 13039ft 256kts
04-Aug-18 12:41 35.806300 -106.025880 5 13063ft 253kts
04-Aug-18 12:42 35.876320 -106.015548 5 13077ft 254kts
04-Aug-18 12:43 35.946762 -106.005125 5 13083ft 257kts
04-Aug-18 12:44 36.017843 -105.994585 5 13090ft 258kts
04-Aug-18 12:45 36.084553 -105.984679 5 13062ft 208kts
04-Aug-18 12:46 36.134325 -105.977303 5 13087ft 174kts
04-Aug-18 12:47 36.184172 -105.968038 10 13095ft 185kts
04-Aug-18 12:48 36.232999 -105.963978 314 13096ft 182kts
04-Aug-18 12:49 36.205999 -105.997999 178 13112ft 195kts
04-Aug-18 12:50 36.174773 -105.962742 52 13106ft 183kts
04-Aug-18 12:51 36.221777 -105.955584 358 13102ft 179kts
04-Aug-18 12:52 36.271833 -105.955531 0 13100ft 181kts
04-Aug-18 12:53 36.314174 -105.917574 40 11759ft 200kts
04-Aug-18 12:54 36.352199 -105.867076 53 10421ft 198kts
04-Aug-18 12:55 36.384030 -105.808748 54 9491ft 201kts
04-Aug-18 12:56 36.411894 -105.757607 53 8513ft 154kts
04-Aug-18 12:57 36.434795 -105.715432 54 7716ft 122kts
04-Aug-18 12:58 36.450971 -105.685716 51 7175ft 100kts
04-Aug-18 12:59 36.458734 -105.673011 54 7066ft 16kts
04-Aug-18 13:00 36.459447 -105.672281 166 7067ft 0kts
04-Aug-18 13:01 36.459447 -105.672281 166 7067ft 0kts
04-Aug-18 13:02 36.459447 -105.672281 166 7067ft 0kts
04-Aug-18 13:03 36.459447 -105.672281 166 7067ft 0kts
04-Aug-18 13:04 36.459447 -105.672281 166 7067ft 0kts

Navigation Log

Ident Type
Flight plan parsing failed, navigation log unavailable